sensor_id;sensor_type;location;lat;lon;timestamp;P1;durP1;ratioP1;P2;durP2;ratioP2
22565;SDS011;11449;51.330;19.378;2024-03-08T00:03:17;190.40;;;85.60;;
22565;SDS011;11449;51.330;19.378;2024-03-08T00:08:25;132.20;;;32.70;;
22565;SDS011;11449;51.330;19.378;2024-03-08T00:13:32;318.80;;;240.30;;
22565;SDS011;11449;51.330;19.378;2024-03-08T00:18:40;201.50;;;65.30;;
22565;SDS011;11449;51.330;19.378;2024-03-08T00:23:47;720.30;;;661.30;;
22565;SDS011;11449;51.330;19.378;2024-03-08T00:28:55;945.50;;;872.70;;
22565;SDS011;11449;51.330;19.378;2024-03-08T00:34:03;851.60;;;786.10;;
22565;SDS011;11449;51.330;19.378;2024-03-08T00:39:10;831.20;;;764.40;;
22565;SDS011;11449;51.330;19.378;2024-03-08T00:44:19;964.00;;;888.00;;
22565;SDS011;11449;51.330;19.378;2024-03-08T00:49:27;135.80;;;24.70;;
22565;SDS011;11449;51.330;19.378;2024-03-08T00:54:34;164.70;;;37.50;;
22565;SDS011;11449;51.330;19.378;2024-03-08T00:59:43;166.30;;;35.90;;
22565;SDS011;11449;51.330;19.378;2024-03-08T01:04:51;161.10;;;40.20;;
22565;SDS011;11449;51.330;19.378;2024-03-08T01:09:58;177.10;;;45.90;;
22565;SDS011;11449;51.330;19.378;2024-03-08T01:15:06;330.30;;;168.30;;
22565;SDS011;11449;51.330;19.378;2024-03-08T01:20:14;430.50;;;227.30;;
22565;SDS011;11449;51.330;19.378;2024-03-08T01:25:21;489.30;;;267.20;;
22565;SDS011;11449;51.330;19.378;2024-03-08T01:30:30;1055.40;;;967.10;;
22565;SDS011;11449;51.330;19.378;2024-03-08T01:35:40;1042.70;;;955.30;;
22565;SDS011;11449;51.330;19.378;2024-03-08T01:40:49;218.00;;;96.80;;
22565;SDS011;11449;51.330;19.378;2024-03-08T01:46:00;822.90;;;753.50;;
22565;SDS011;11449;51.330;19.378;2024-03-08T01:51:08;197.90;;;98.10;;
22565;SDS011;11449;51.330;19.378;2024-03-08T01:56:16;374.80;;;304.50;;
22565;SDS011;11449;51.330;19.378;2024-03-08T02:01:25;724.80;;;663.20;;
22565;SDS011;11449;51.330;19.378;2024-03-08T02:06:33;798.80;;;731.30;;
22565;SDS011;11449;51.330;19.378;2024-03-08T02:11:41;724.00;;;659.60;;
22565;SDS011;11449;51.330;19.378;2024-03-08T02:16:49;224.60;;;77.90;;
22565;SDS011;11449;51.330;19.378;2024-03-08T02:21:58;286.00;;;139.60;;
22565;SDS011;11449;51.330;19.378;2024-03-08T02:27:06;267.50;;;134.10;;
22565;SDS011;11449;51.330;19.378;2024-03-08T02:32:14;342.40;;;191.20;;
22565;SDS011;11449;51.330;19.378;2024-03-08T02:37:22;357.00;;;207.90;;
22565;SDS011;11449;51.330;19.378;2024-03-08T02:42:29;357.30;;;223.70;;
22565;SDS011;11449;51.330;19.378;2024-03-08T02:47:37;357.80;;;218.60;;
22565;SDS011;11449;51.330;19.378;2024-03-08T02:52:44;373.30;;;211.60;;
22565;SDS011;11449;51.330;19.378;2024-03-08T02:57:53;282.00;;;152.10;;
22565;SDS011;11449;51.330;19.378;2024-03-08T03:03:04;304.60;;;170.20;;
22565;SDS011;11449;51.330;19.378;2024-03-08T03:08:12;318.20;;;178.50;;
22565;SDS011;11449;51.330;19.378;2024-03-08T03:13:20;218.60;;;91.00;;
22565;SDS011;11449;51.330;19.378;2024-03-08T03:18:28;131.10;;;28.20;;
22565;SDS011;11449;51.330;19.378;2024-03-08T03:23:36;142.40;;;30.70;;
22565;SDS011;11449;51.330;19.378;2024-03-08T03:28:44;113.60;;;29.70;;
22565;SDS011;11449;51.330;19.378;2024-03-08T03:33:52;307.70;;;257.00;;
22565;SDS011;11449;51.330;19.378;2024-03-08T03:38:59;224.60;;;143.80;;
22565;SDS011;11449;51.330;19.378;2024-03-08T03:44:18;165.40;;;72.00;;
22565;SDS011;11449;51.330;19.378;2024-03-08T03:49:25;237.70;;;145.90;;
22565;SDS011;11449;51.330;19.378;2024-03-08T03:54:33;277.70;;;152.10;;
22565;SDS011;11449;51.330;19.378;2024-03-08T03:59:41;317.30;;;224.50;;
22565;SDS011;11449;51.330;19.378;2024-03-08T04:04:48;331.70;;;196.40;;
22565;SDS011;11449;51.330;19.378;2024-03-08T04:09:56;385.30;;;234.60;;
22565;SDS011;11449;51.330;19.378;2024-03-08T04:15:04;377.90;;;216.10;;
22565;SDS011;11449;51.330;19.378;2024-03-08T04:20:14;376.30;;;198.10;;
22565;SDS011;11449;51.330;19.378;2024-03-08T04:25:22;380.90;;;217.10;;
22565;SDS011;11449;51.330;19.378;2024-03-08T04:30:29;382.10;;;233.00;;
22565;SDS011;11449;51.330;19.378;2024-03-08T04:35:32;329.10;;;170.50;;
22565;SDS011;11449;51.330;19.378;2024-03-08T04:40:40;243.20;;;91.40;;
22565;SDS011;11449;51.330;19.378;2024-03-08T04:45:48;325.30;;;144.10;;
22565;SDS011;11449;51.330;19.378;2024-03-08T04:50:55;332.20;;;151.30;;
22565;SDS011;11449;51.330;19.378;2024-03-08T04:56:03;330.10;;;167.80;;
22565;SDS011;11449;51.330;19.378;2024-03-08T05:01:14;449.10;;;201.30;;
22565;SDS011;11449;51.330;19.378;2024-03-08T05:06:21;371.00;;;172.70;;
22565;SDS011;11449;51.330;19.378;2024-03-08T05:11:31;345.30;;;179.80;;
22565;SDS011;11449;51.330;19.378;2024-03-08T05:16:38;301.60;;;150.10;;
22565;SDS011;11449;51.330;19.378;2024-03-08T05:21:47;273.60;;;125.10;;
22565;SDS011;11449;51.330;19.378;2024-03-08T05:26:55;231.80;;;94.60;;
22565;SDS011;11449;51.330;19.378;2024-03-08T05:32:03;238.10;;;81.90;;
22565;SDS011;11449;51.330;19.378;2024-03-08T05:37:11;257.50;;;82.20;;
22565;SDS011;11449;51.330;19.378;2024-03-08T05:42:19;209.00;;;60.10;;
22565;SDS011;11449;51.330;19.378;2024-03-08T05:47:26;241.50;;;60.10;;
22565;SDS011;11449;51.330;19.378;2024-03-08T05:52:34;253.70;;;63.50;;
22565;SDS011;11449;51.330;19.378;2024-03-08T05:57:42;248.40;;;64.20;;
22565;SDS011;11449;51.330;19.378;2024-03-08T06:02:49;299.80;;;81.60;;
22565;SDS011;11449;51.330;19.378;2024-03-08T06:07:57;226.00;;;64.30;;
22565;SDS011;11449;51.330;19.378;2024-03-08T06:13:05;210.20;;;55.60;;
22565;SDS011;11449;51.330;19.378;2024-03-08T06:18:12;229.90;;;59.00;;
22565;SDS011;11449;51.330;19.378;2024-03-08T06:23:20;220.90;;;63.10;;
22565;SDS011;11449;51.330;19.378;2024-03-08T06:28:29;232.60;;;59.10;;
22565;SDS011;11449;51.330;19.378;2024-03-08T06:33:36;225.50;;;62.70;;
22565;SDS011;11449;51.330;19.378;2024-03-08T06:38:47;128.40;;;39.40;;
22565;SDS011;11449;51.330;19.378;2024-03-08T06:43:55;81.00;;;25.90;;
22565;SDS011;11449;51.330;19.378;2024-03-08T06:49:05;71.30;;;25.70;;
22565;SDS011;11449;51.330;19.378;2024-03-08T06:54:14;92.20;;;27.40;;
22565;SDS011;11449;51.330;19.378;2024-03-08T06:59:22;139.40;;;34.80;;
22565;SDS011;11449;51.330;19.378;2024-03-08T07:04:29;256.10;;;98.10;;
22565;SDS011;11449;51.330;19.378;2024-03-08T07:09:38;304.50;;;167.20;;
22565;SDS011;11449;51.330;19.378;2024-03-08T07:14:46;285.10;;;167.90;;
22565;SDS011;11449;51.330;19.378;2024-03-08T07:19:54;314.10;;;198.50;;
22565;SDS011;11449;51.330;19.378;2024-03-08T07:25:02;956.40;;;887.10;;
22565;SDS011;11449;51.330;19.378;2024-03-08T07:30:27;984.50;;;910.90;;
22565;SDS011;11449;51.330;19.378;2024-03-08T07:35:52;1014.50;;;941.00;;
22565;SDS011;11449;51.330;19.378;2024-03-08T07:41:00;1028.80;;;954.20;;
22565;SDS011;11449;51.330;19.378;2024-03-08T07:46:09;1022.00;;;948.20;;
22565;SDS011;11449;51.330;19.378;2024-03-08T07:51:17;990.80;;;918.70;;
22565;SDS011;11449;51.330;19.378;2024-03-08T07:56:25;1000.10;;;925.80;;
22565;SDS011;11449;51.330;19.378;2024-03-08T08:01:33;520.00;;;464.90;;
22565;SDS011;11449;51.330;19.378;2024-03-08T08:06:41;390.00;;;259.30;;
22565;SDS011;11449;51.330;19.378;2024-03-08T08:11:49;323.50;;;201.90;;
22565;SDS011;11449;51.330;19.378;2024-03-08T08:16:57;341.40;;;231.90;;
22565;SDS011;11449;51.330;19.378;2024-03-08T08:22:07;327.60;;;225.50;;
22565;SDS011;11449;51.330;19.378;2024-03-08T08:27:16;351.40;;;238.80;;
22565;SDS011;11449;51.330;19.378;2024-03-08T08:32:24;470.80;;;330.30;;
22565;SDS011;11449;51.330;19.378;2024-03-08T08:37:32;427.00;;;288.80;;
22565;SDS011;11449;51.330;19.378;2024-03-08T08:42:40;394.90;;;246.60;;
22565;SDS011;11449;51.330;19.378;2024-03-08T08:47:48;341.30;;;211.30;;
22565;SDS011;11449;51.330;19.378;2024-03-08T08:52:56;352.20;;;229.80;;
22565;SDS011;11449;51.330;19.378;2024-03-08T08:58:06;321.30;;;203.40;;
22565;SDS011;11449;51.330;19.378;2024-03-08T09:03:14;349.10;;;234.40;;
22565;SDS011;11449;51.330;19.378;2024-03-08T09:08:24;656.40;;;587.50;;
22565;SDS011;11449;51.330;19.378;2024-03-08T09:13:32;579.70;;;516.10;;
22565;SDS011;11449;51.330;19.378;2024-03-08T09:23:50;452.30;;;391.30;;
22565;SDS011;11449;51.330;19.378;2024-03-08T09:28:59;368.90;;;268.70;;
22565;SDS011;11449;51.330;19.378;2024-03-08T09:34:06;972.40;;;899.90;;
22565;SDS011;11449;51.330;19.378;2024-03-08T09:39:16;608.80;;;554.40;;
22565;SDS011;11449;51.330;19.378;2024-03-08T09:44:24;942.60;;;874.30;;
22565;SDS011;11449;51.330;19.378;2024-03-08T09:49:32;617.70;;;563.00;;
22565;SDS011;11449;51.330;19.378;2024-03-08T09:54:40;508.80;;;460.20;;
22565;SDS011;11449;51.330;19.378;2024-03-08T09:59:47;774.00;;;713.20;;
22565;SDS011;11449;51.330;19.378;2024-03-08T10:04:55;891.50;;;824.30;;
22565;SDS011;11449;51.330;19.378;2024-03-08T10:10:05;300.80;;;173.10;;
22565;SDS011;11449;51.330;19.378;2024-03-08T10:15:12;331.50;;;213.30;;
22565;SDS011;11449;51.330;19.378;2024-03-08T10:20:24;293.70;;;175.80;;
22565;SDS011;11449;51.330;19.378;2024-03-08T10:25:31;236.10;;;142.50;;
22565;SDS011;11449;51.330;19.378;2024-03-08T10:30:39;240.60;;;137.40;;
22565;SDS011;11449;51.330;19.378;2024-03-08T10:35:55;283.60;;;164.40;;
22565;SDS011;11449;51.330;19.378;2024-03-08T10:41:03;374.70;;;261.60;;
22565;SDS011;11449;51.330;19.378;2024-03-08T10:51:22;297.60;;;186.10;;
22565;SDS011;11449;51.330;19.378;2024-03-08T10:56:30;262.70;;;162.00;;
22565;SDS011;11449;51.330;19.378;2024-03-08T11:01:38;209.80;;;114.90;;
22565;SDS011;11449;51.330;19.378;2024-03-08T11:06:50;371.90;;;155.10;;
22565;SDS011;11449;51.330;19.378;2024-03-08T11:17:07;919.40;;;849.10;;
22565;SDS011;11449;51.330;19.378;2024-03-08T11:22:22;970.00;;;898.70;;
22565;SDS011;11449;51.330;19.378;2024-03-08T11:27:34;806.80;;;744.90;;
22565;SDS011;11449;51.330;19.378;2024-03-08T11:32:45;964.20;;;892.00;;
22565;SDS011;11449;51.330;19.378;2024-03-08T11:37:53;705.70;;;650.10;;
22565;SDS011;11449;51.330;19.378;2024-03-08T11:43:01;790.00;;;725.80;;
22565;SDS011;11449;51.330;19.378;2024-03-08T11:48:14;443.70;;;400.20;;
22565;SDS011;11449;51.330;19.378;2024-03-08T11:53:22;643.10;;;587.10;;
22565;SDS011;11449;51.330;19.378;2024-03-08T11:58:29;894.50;;;829.20;;
22565;SDS011;11449;51.330;19.378;2024-03-08T12:03:38;554.90;;;505.40;;
22565;SDS011;11449;51.330;19.378;2024-03-08T12:08:46;864.80;;;800.30;;
22565;SDS011;11449;51.330;19.378;2024-03-08T12:13:56;920.60;;;852.80;;
22565;SDS011;11449;51.330;19.378;2024-03-08T12:19:04;965.60;;;893.90;;
22565;SDS011;11449;51.330;19.378;2024-03-08T12:24:14;1007.50;;;934.10;;
22565;SDS011;11449;51.330;19.378;2024-03-08T12:29:24;989.00;;;916.90;;
22565;SDS011;11449;51.330;19.378;2024-03-08T12:34:32;1000.60;;;927.40;;
22565;SDS011;11449;51.330;19.378;2024-03-08T12:39:40;795.90;;;733.20;;
22565;SDS011;11449;51.330;19.378;2024-03-08T12:44:48;974.20;;;903.80;;
22565;SDS011;11449;51.330;19.378;2024-03-08T12:49:55;961.60;;;891.20;;
22565;SDS011;11449;51.330;19.378;2024-03-08T12:55:03;821.90;;;757.30;;
22565;SDS011;11449;51.330;19.378;2024-03-08T13:00:14;809.80;;;747.40;;
22565;SDS011;11449;51.330;19.378;2024-03-08T13:05:26;895.60;;;829.90;;
22565;SDS011;11449;51.330;19.378;2024-03-08T13:10:34;871.90;;;807.30;;
22565;SDS011;11449;51.330;19.378;2024-03-08T13:15:42;815.40;;;753.60;;
22565;SDS011;11449;51.330;19.378;2024-03-08T13:20:50;688.10;;;629.40;;
22565;SDS011;11449;51.330;19.378;2024-03-08T13:25:59;136.50;;;66.90;;
22565;SDS011;11449;51.330;19.378;2024-03-08T13:31:07;192.50;;;151.20;;
22565;SDS011;11449;51.330;19.378;2024-03-08T13:36:18;442.50;;;395.50;;
22565;SDS011;11449;51.330;19.378;2024-03-08T13:41:28;741.50;;;680.30;;
22565;SDS011;11449;51.330;19.378;2024-03-08T13:46:36;915.50;;;849.40;;
22565;SDS011;11449;51.330;19.378;2024-03-08T13:51:44;837.70;;;775.30;;
22565;SDS011;11449;51.330;19.378;2024-03-08T13:56:52;919.40;;;853.40;;
22565;SDS011;11449;51.330;19.378;2024-03-08T14:02:02;936.10;;;868.70;;
22565;SDS011;11449;51.330;19.378;2024-03-08T14:07:10;948.40;;;878.50;;
22565;SDS011;11449;51.330;19.378;2024-03-08T14:12:18;935.20;;;862.00;;
22565;SDS011;11449;51.330;19.378;2024-03-08T14:17:26;958.50;;;886.10;;
22565;SDS011;11449;51.330;19.378;2024-03-08T14:22:35;415.20;;;373.70;;
22565;SDS011;11449;51.330;19.378;2024-03-08T14:27:46;805.10;;;742.30;;
22565;SDS011;11449;51.330;19.378;2024-03-08T14:32:53;850.70;;;783.80;;
22565;SDS011;11449;51.330;19.378;2024-03-08T14:38:01;901.70;;;836.00;;
22565;SDS011;11449;51.330;19.378;2024-03-08T14:43:09;954.90;;;885.80;;
22565;SDS011;11449;51.330;19.378;2024-03-08T14:48:17;945.10;;;872.10;;
22565;SDS011;11449;51.330;19.378;2024-03-08T14:53:25;961.30;;;887.30;;
22565;SDS011;11449;51.330;19.378;2024-03-08T14:58:33;926.30;;;858.40;;
22565;SDS011;11449;51.330;19.378;2024-03-08T15:03:41;931.20;;;862.40;;
22565;SDS011;11449;51.330;19.378;2024-03-08T15:08:50;979.20;;;907.10;;
22565;SDS011;11449;51.330;19.378;2024-03-08T15:13:59;970.40;;;899.40;;
22565;SDS011;11449;51.330;19.378;2024-03-08T15:19:08;969.80;;;898.40;;
22565;SDS011;11449;51.330;19.378;2024-03-08T15:24:16;952.40;;;880.30;;
22565;SDS011;11449;51.330;19.378;2024-03-08T15:29:28;957.00;;;884.70;;
22565;SDS011;11449;51.330;19.378;2024-03-08T15:34:36;982.90;;;911.30;;
22565;SDS011;11449;51.330;19.378;2024-03-08T15:39:45;978.80;;;906.70;;
22565;SDS011;11449;51.330;19.378;2024-03-08T15:44:53;987.60;;;914.70;;
22565;SDS011;11449;51.330;19.378;2024-03-08T15:50:03;991.60;;;918.30;;
22565;SDS011;11449;51.330;19.378;2024-03-08T15:55:14;967.20;;;895.20;;
22565;SDS011;11449;51.330;19.378;2024-03-08T16:00:27;984.20;;;909.20;;
22565;SDS011;11449;51.330;19.378;2024-03-08T16:05:44;974.50;;;903.60;;
22565;SDS011;11449;51.330;19.378;2024-03-08T16:10:53;983.50;;;911.60;;
22565;SDS011;11449;51.330;19.378;2024-03-08T16:16:04;982.50;;;909.60;;
22565;SDS011;11449;51.330;19.378;2024-03-08T16:21:12;972.60;;;900.60;;
22565;SDS011;11449;51.330;19.378;2024-03-08T16:26:19;964.90;;;889.00;;
22565;SDS011;11449;51.330;19.378;2024-03-08T16:31:27;977.50;;;902.00;;
22565;SDS011;11449;51.330;19.378;2024-03-08T16:36:36;964.60;;;892.90;;
22565;SDS011;11449;51.330;19.378;2024-03-08T16:41:48;994.50;;;919.60;;
22565;SDS011;11449;51.330;19.378;2024-03-08T16:46:59;1044.60;;;962.90;;
22565;SDS011;11449;51.330;19.378;2024-03-08T16:52:07;988.90;;;913.70;;
22565;SDS011;11449;51.330;19.378;2024-03-08T16:57:14;974.80;;;900.20;;
22565;SDS011;11449;51.330;19.378;2024-03-08T17:02:23;850.60;;;780.60;;
22565;SDS011;11449;51.330;19.378;2024-03-08T17:07:32;953.30;;;880.10;;
22565;SDS011;11449;51.330;19.378;2024-03-08T17:12:43;947.50;;;875.00;;
22565;SDS011;11449;51.330;19.378;2024-03-08T17:17:54;963.80;;;891.40;;
22565;SDS011;11449;51.330;19.378;2024-03-08T17:28:12;910.50;;;840.10;;
22565;SDS011;11449;51.330;19.378;2024-03-08T17:33:21;827.40;;;760.70;;
22565;SDS011;11449;51.330;19.378;2024-03-08T17:38:35;934.10;;;863.80;;
22565;SDS011;11449;51.330;19.378;2024-03-08T17:43:38;914.60;;;845.60;;
22565;SDS011;11449;51.330;19.378;2024-03-08T17:48:46;990.60;;;917.10;;
22565;SDS011;11449;51.330;19.378;2024-03-08T17:53:54;988.20;;;914.30;;
22565;SDS011;11449;51.330;19.378;2024-03-08T17:59:01;995.70;;;921.20;;
22565;SDS011;11449;51.330;19.378;2024-03-08T18:04:06;995.20;;;919.60;;
22565;SDS011;11449;51.330;19.378;2024-03-08T18:09:17;979.00;;;901.80;;
22565;SDS011;11449;51.330;19.378;2024-03-08T18:14:30;979.70;;;905.30;;
22565;SDS011;11449;51.330;19.378;2024-03-08T18:19:39;1016.40;;;938.50;;
22565;SDS011;11449;51.330;19.378;2024-03-08T18:24:47;991.60;;;915.70;;
22565;SDS011;11449;51.330;19.378;2024-03-08T18:29:55;983.90;;;909.20;;
22565;SDS011;11449;51.330;19.378;2024-03-08T18:35:03;1001.80;;;924.10;;
22565;SDS011;11449;51.330;19.378;2024-03-08T18:40:11;1022.30;;;939.40;;
22565;SDS011;11449;51.330;19.378;2024-03-08T18:45:20;998.00;;;917.50;;
22565;SDS011;11449;51.330;19.378;2024-03-08T18:50:28;996.60;;;914.40;;
22565;SDS011;11449;51.330;19.378;2024-03-08T18:55:38;974.00;;;899.00;;
22565;SDS011;11449;51.330;19.378;2024-03-08T19:00:45;971.60;;;895.20;;
22565;SDS011;11449;51.330;19.378;2024-03-08T19:05:56;975.10;;;897.50;;
22565;SDS011;11449;51.330;19.378;2024-03-08T19:11:04;979.90;;;902.60;;
22565;SDS011;11449;51.330;19.378;2024-03-08T19:16:12;960.40;;;884.60;;
22565;SDS011;11449;51.330;19.378;2024-03-08T19:21:23;964.30;;;886.60;;
22565;SDS011;11449;51.330;19.378;2024-03-08T19:26:31;966.10;;;889.90;;
22565;SDS011;11449;51.330;19.378;2024-03-08T19:31:39;972.70;;;897.50;;
22565;SDS011;11449;51.330;19.378;2024-03-08T19:36:48;1004.20;;;925.60;;
22565;SDS011;11449;51.330;19.378;2024-03-08T19:41:56;1007.90;;;924.70;;
22565;SDS011;11449;51.330;19.378;2024-03-08T19:47:05;997.70;;;915.30;;
22565;SDS011;11449;51.330;19.378;2024-03-08T19:52:15;1011.00;;;927.90;;
22565;SDS011;11449;51.330;19.378;2024-03-08T19:57:23;1010.10;;;928.90;;
22565;SDS011;11449;51.330;19.378;2024-03-08T20:02:31;995.70;;;920.90;;
22565;SDS011;11449;51.330;19.378;2024-03-08T20:07:39;666.20;;;604.90;;
22565;SDS011;11449;51.330;19.378;2024-03-08T20:12:47;984.80;;;907.90;;
22565;SDS011;11449;51.330;19.378;2024-03-08T20:17:55;940.90;;;871.00;;
22565;SDS011;11449;51.330;19.378;2024-03-08T20:23:00;646.50;;;587.20;;
22565;SDS011;11449;51.330;19.378;2024-03-08T20:28:08;797.80;;;728.00;;
22565;SDS011;11449;51.330;19.378;2024-03-08T20:33:17;723.90;;;652.30;;
22565;SDS011;11449;51.330;19.378;2024-03-08T20:38:25;897.20;;;825.00;;
22565;SDS011;11449;51.330;19.378;2024-03-08T20:43:34;712.60;;;645.40;;
22565;SDS011;11449;51.330;19.378;2024-03-08T20:48:42;841.70;;;772.40;;
22565;SDS011;11449;51.330;19.378;2024-03-08T20:53:53;729.40;;;661.90;;
22565;SDS011;11449;51.330;19.378;2024-03-08T20:59:01;772.20;;;700.20;;
22565;SDS011;11449;51.330;19.378;2024-03-08T21:04:09;868.80;;;788.80;;
22565;SDS011;11449;51.330;19.378;2024-03-08T21:09:20;1028.40;;;921.00;;
22565;SDS011;11449;51.330;19.378;2024-03-08T21:14:30;1037.90;;;926.30;;
22565;SDS011;11449;51.330;19.378;2024-03-08T21:19:39;1017.90;;;917.50;;
22565;SDS011;11449;51.330;19.378;2024-03-08T21:24:52;1061.70;;;951.70;;
22565;SDS011;11449;51.330;19.378;2024-03-08T21:30:00;1046.00;;;953.70;;
22565;SDS011;11449;51.330;19.378;2024-03-08T21:35:07;1025.00;;;938.00;;
22565;SDS011;11449;51.330;19.378;2024-03-08T21:40:17;1051.50;;;958.40;;
22565;SDS011;11449;51.330;19.378;2024-03-08T21:45:33;1061.80;;;968.70;;
22565;SDS011;11449;51.330;19.378;2024-03-08T21:50:44;1038.00;;;949.20;;
22565;SDS011;11449;51.330;19.378;2024-03-08T21:55:51;1037.70;;;945.70;;
22565;SDS011;11449;51.330;19.378;2024-03-08T22:00:59;1042.50;;;954.20;;
22565;SDS011;11449;51.330;19.378;2024-03-08T22:06:07;1037.00;;;950.10;;
22565;SDS011;11449;51.330;19.378;2024-03-08T22:11:16;1051.00;;;956.80;;
22565;SDS011;11449;51.330;19.378;2024-03-08T22:16:24;1058.70;;;966.40;;
22565;SDS011;11449;51.330;19.378;2024-03-08T22:21:32;1048.50;;;956.60;;
22565;SDS011;11449;51.330;19.378;2024-03-08T22:26:40;1051.90;;;958.50;;
22565;SDS011;11449;51.330;19.378;2024-03-08T22:31:47;1059.90;;;965.30;;
22565;SDS011;11449;51.330;19.378;2024-03-08T22:36:56;1041.10;;;947.80;;
22565;SDS011;11449;51.330;19.378;2024-03-08T22:42:04;1055.60;;;964.40;;
22565;SDS011;11449;51.330;19.378;2024-03-08T22:52:22;1060.80;;;969.60;;
22565;SDS011;11449;51.330;19.378;2024-03-08T22:57:30;1068.00;;;971.60;;
22565;SDS011;11449;51.330;19.378;2024-03-08T23:02:37;1044.00;;;955.70;;
22565;SDS011;11449;51.330;19.378;2024-03-08T23:07:45;1055.30;;;964.10;;
22565;SDS011;11449;51.330;19.378;2024-03-08T23:12:56;1044.00;;;950.10;;
22565;SDS011;11449;51.330;19.378;2024-03-08T23:18:04;1034.70;;;946.20;;
22565;SDS011;11449;51.330;19.378;2024-03-08T23:23:17;1039.90;;;949.10;;
22565;SDS011;11449;51.330;19.378;2024-03-08T23:28:26;1048.10;;;956.00;;
22565;SDS011;11449;51.330;19.378;2024-03-08T23:33:36;1040.20;;;951.10;;
22565;SDS011;11449;51.330;19.378;2024-03-08T23:38:44;1027.90;;;938.20;;
22565;SDS011;11449;51.330;19.378;2024-03-08T23:43:52;1038.70;;;948.00;;
22565;SDS011;11449;51.330;19.378;2024-03-08T23:48:59;1034.50;;;942.80;;
22565;SDS011;11449;51.330;19.378;2024-03-08T23:54:07;824.30;;;754.60;;
22565;SDS011;11449;51.330;19.378;2024-03-08T23:59:15;760.20;;;692.50;;
